sensor_id;sensor_type;location;lat;lon;timestamp;pressure;altitude;pressure_sealevel;temperature;humidity
6851;BME280;3464;42.728;23.296;2024-03-02T00:00:10;94675.23;;;16.82;53.60
6851;BME280;3464;42.728;23.296;2024-03-02T00:02:41;94665.50;;;17.47;52.10
6851;BME280;3464;42.728;23.296;2024-03-02T00:05:10;94659.48;;;17.94;51.61
6851;BME280;3464;42.728;23.296;2024-03-02T00:07:37;94624.57;;;18.11;50.39
6851;BME280;3464;42.728;23.296;2024-03-02T00:10:06;94676.06;;;18.64;49.73
6851;BME280;3464;42.728;23.296;2024-03-02T00:12:31;94682.25;;;17.23;52.16
6851;BME280;3464;42.728;23.296;2024-03-02T00:14:58;94674.47;;;17.27;52.72
6851;BME280;3464;42.728;23.296;2024-03-02T00:17:25;94667.75;;;17.41;52.27
6851;BME280;3464;42.728;23.296;2024-03-02T00:19:52;94666.73;;;17.93;51.44
6851;BME280;3464;42.728;23.296;2024-03-02T00:22:19;94669.36;;;18.33;50.36
6851;BME280;3464;42.728;23.296;2024-03-02T00:24:47;94673.12;;;17.31;51.91
6851;BME280;3464;42.728;23.296;2024-03-02T00:27:14;94673.81;;;17.20;52.40
6851;BME280;3464;42.728;23.296;2024-03-02T00:29:40;94671.50;;;17.90;50.81
6851;BME280;3464;42.728;23.296;2024-03-02T00:32:12;94671.23;;;17.98;50.87
6851;BME280;3464;42.728;23.296;2024-03-02T00:34:38;94669.59;;;18.53;49.55
6851;BME280;3464;42.728;23.296;2024-03-02T00:37:05;94674.48;;;18.18;50.17
6851;BME280;3464;42.728;23.296;2024-03-02T00:39:32;94663.64;;;18.79;49.23
6851;BME280;3464;42.728;23.296;2024-03-02T00:41:59;94661.22;;;17.49;51.38
6851;BME280;3464;42.728;23.296;2024-03-02T00:44:26;94656.80;;;17.39;51.49
6851;BME280;3464;42.728;23.296;2024-03-02T00:46:53;94647.38;;;17.45;52.18
6851;BME280;3464;42.728;23.296;2024-03-02T00:49:22;94654.83;;;17.79;51.59
6851;BME280;3464;42.728;23.296;2024-03-02T00:51:50;94658.83;;;18.30;50.67
6851;BME280;3464;42.728;23.296;2024-03-02T00:54:21;94651.68;;;17.56;51.50
6851;BME280;3464;42.728;23.296;2024-03-02T00:56:47;94652.16;;;18.12;50.98
6851;BME280;3464;42.728;23.296;2024-03-02T00:59:13;94656.09;;;17.50;52.11
6851;BME280;3464;42.728;23.296;2024-03-02T01:01:40;94646.91;;;18.30;50.34
6851;BME280;3464;42.728;23.296;2024-03-02T01:04:06;94653.66;;;18.05;50.77
6851;BME280;3464;42.728;23.296;2024-03-02T01:06:34;94653.19;;;18.06;50.91
6851;BME280;3464;42.728;23.296;2024-03-02T01:09:02;94648.37;;;18.91;49.39
6851;BME280;3464;42.728;23.296;2024-03-02T01:11:29;94653.80;;;19.78;47.63
6851;BME280;3464;42.728;23.296;2024-03-02T01:13:56;94656.61;;;18.33;50.18
6851;BME280;3464;42.728;23.296;2024-03-02T01:16:23;94649.82;;;18.98;49.03
6851;BME280;3464;42.728;23.296;2024-03-02T01:18:51;94652.69;;;17.94;50.32
6851;BME280;3464;42.728;23.296;2024-03-02T01:21:17;94637.69;;;17.08;52.91
6851;BME280;3464;42.728;23.296;2024-03-02T01:23:45;94632.25;;;17.68;51.37
6851;BME280;3464;42.728;23.296;2024-03-02T01:26:11;94632.69;;;16.56;53.99
6851;BME280;3464;42.728;23.296;2024-03-02T01:28:41;94637.59;;;16.27;54.75
6851;BME280;3464;42.728;23.296;2024-03-02T01:31:07;94635.37;;;16.50;54.98
6851;BME280;3464;42.728;23.296;2024-03-02T01:33:35;94632.69;;;16.37;55.05
6851;BME280;3464;42.728;23.296;2024-03-02T01:36:01;94623.50;;;17.16;53.58
6851;BME280;3464;42.728;23.296;2024-03-02T01:38:28;94623.81;;;18.37;50.87
6851;BME280;3464;42.728;23.296;2024-03-02T01:40:55;94624.44;;;17.88;51.93
6851;BME280;3464;42.728;23.296;2024-03-02T01:43:23;94628.37;;;16.58;54.22
6851;BME280;3464;42.728;23.296;2024-03-02T01:45:50;94633.64;;;16.52;54.81
6851;BME280;3464;42.728;23.296;2024-03-02T01:48:16;94626.77;;;16.72;54.07
6851;BME280;3464;42.728;23.296;2024-03-02T01:50:43;94623.12;;;16.13;55.54
6851;BME280;3464;42.728;23.296;2024-03-02T01:53:10;94604.20;;;16.93;53.92
6851;BME280;3464;42.728;23.296;2024-03-02T01:55:36;94621.16;;;15.87;56.23
6851;BME280;3464;42.728;23.296;2024-03-02T01:58:03;94608.45;;;16.43;55.36
6851;BME280;3464;42.728;23.296;2024-03-02T02:00:29;94615.64;;;16.77;54.65
6851;BME280;3464;42.728;23.296;2024-03-02T02:02:56;94614.01;;;17.22;53.60
6851;BME280;3464;42.728;23.296;2024-03-02T02:05:23;94619.45;;;16.60;54.26
6851;BME280;3464;42.728;23.296;2024-03-02T02:07:49;94616.27;;;17.32;53.99
6851;BME280;3464;42.728;23.296;2024-03-02T02:10:16;94617.38;;;17.38;53.32
6851;BME280;3464;42.728;23.296;2024-03-02T02:12:43;94615.32;;;17.21;54.15
6851;BME280;3464;42.728;23.296;2024-03-02T02:17:49;94601.70;;;18.23;51.06
6851;BME280;3464;42.728;23.296;2024-03-02T02:20:16;94605.45;;;17.39;53.01
6851;BME280;3464;42.728;23.296;2024-03-02T02:22:58;94607.78;;;18.20;51.29
6851;BME280;3464;42.728;23.296;2024-03-02T02:25:24;94611.52;;;17.66;51.83
6851;BME280;3464;42.728;23.296;2024-03-02T02:27:51;94611.89;;;17.68;51.77
6851;BME280;3464;42.728;23.296;2024-03-02T02:30:25;94612.67;;;16.60;54.38
6851;BME280;3464;42.728;23.296;2024-03-02T02:32:51;94613.53;;;16.41;55.25
6851;BME280;3464;42.728;23.296;2024-03-02T02:35:17;94605.33;;;16.82;53.89
6851;BME280;3464;42.728;23.296;2024-03-02T02:37:44;94608.66;;;17.17;53.42
6851;BME280;3464;42.728;23.296;2024-03-02T02:40:11;94610.80;;;18.18;51.46
6851;BME280;3464;42.728;23.296;2024-03-02T02:42:38;94607.81;;;18.04;50.88
6851;BME280;3464;42.728;23.296;2024-03-02T02:45:06;94604.87;;;18.58;49.88
6851;BME280;3464;42.728;23.296;2024-03-02T02:47:33;94610.56;;;19.03;49.17
6851;BME280;3464;42.728;23.296;2024-03-02T02:50:02;94616.90;;;19.16;48.83
6851;BME280;3464;42.728;23.296;2024-03-02T02:52:30;94618.39;;;19.10;48.97
6851;BME280;3464;42.728;23.296;2024-03-02T02:54:54;94621.43;;;19.44;48.32
6851;BME280;3464;42.728;23.296;2024-03-02T02:57:21;94617.70;;;20.22;46.75
6851;BME280;3464;42.728;23.296;2024-03-02T02:59:47;94607.86;;;19.19;48.50
6851;BME280;3464;42.728;23.296;2024-03-02T03:02:14;94615.19;;;19.64;47.79
6851;BME280;3464;42.728;23.296;2024-03-02T03:04:42;94618.52;;;18.15;50.60
6851;BME280;3464;42.728;23.296;2024-03-02T03:07:09;94615.88;;;18.71;49.53
6851;BME280;3464;42.728;23.296;2024-03-02T03:09:38;94620.54;;;18.72;49.57
6851;BME280;3464;42.728;23.296;2024-03-02T03:12:05;94617.17;;;19.20;48.32
6851;BME280;3464;42.728;23.296;2024-03-02T03:14:32;94621.67;;;19.38;47.61
6851;BME280;3464;42.728;23.296;2024-03-02T03:16:58;94618.64;;;18.77;48.93
6851;BME280;3464;42.728;23.296;2024-03-02T03:19:25;94614.72;;;18.80;49.13
6851;BME280;3464;42.728;23.296;2024-03-02T03:21:52;94615.72;;;18.36;49.56
6851;BME280;3464;42.728;23.296;2024-03-02T03:24:19;94613.24;;;18.48;49.79
6851;BME280;3464;42.728;23.296;2024-03-02T03:26:46;94615.13;;;19.06;49.02
6851;BME280;3464;42.728;23.296;2024-03-02T03:29:13;94616.94;;;19.52;47.99
6851;BME280;3464;42.728;23.296;2024-03-02T03:31:40;94610.42;;;19.32;48.10
6851;BME280;3464;42.728;23.296;2024-03-02T03:34:07;94613.80;;;18.95;48.87
6851;BME280;3464;42.728;23.296;2024-03-02T03:36:35;94614.73;;;18.93;49.08
6851;BME280;3464;42.728;23.296;2024-03-02T03:39:02;94616.56;;;19.02;49.10
6851;BME280;3464;42.728;23.296;2024-03-02T03:41:28;94616.94;;;19.52;47.82
6851;BME280;3464;42.728;23.296;2024-03-02T03:43:55;94622.41;;;18.54;49.46
6851;BME280;3464;42.728;23.296;2024-03-02T03:46:21;94615.47;;;19.56;47.85
6851;BME280;3464;42.728;23.296;2024-03-02T03:48:48;94610.67;;;19.94;46.99
6851;BME280;3464;42.728;23.296;2024-03-02T03:51:14;94613.48;;;19.76;47.28
6851;BME280;3464;42.728;23.296;2024-03-02T03:53:41;94621.23;;;19.85;47.17
6851;BME280;3464;42.728;23.296;2024-03-02T03:56:08;94617.41;;;18.77;48.95
6851;BME280;3464;42.728;23.296;2024-03-02T03:58:35;94616.59;;;18.08;50.95
6851;BME280;3464;42.728;23.296;2024-03-02T04:01:02;94606.25;;;19.41;48.47
6851;BME280;3464;42.728;23.296;2024-03-02T04:03:29;94612.02;;;19.22;48.79
6851;BME280;3464;42.728;23.296;2024-03-02T04:05:56;94610.70;;;18.07;50.63
6851;BME280;3464;42.728;23.296;2024-03-02T04:08:22;94609.09;;;19.21;49.17
6851;BME280;3464;42.728;23.296;2024-03-02T04:10:49;94606.96;;;19.90;47.44
6851;BME280;3464;42.728;23.296;2024-03-02T04:13:15;94610.56;;;19.74;47.77
6851;BME280;3464;42.728;23.296;2024-03-02T04:15:42;94605.22;;;20.15;47.03
6851;BME280;3464;42.728;23.296;2024-03-02T04:18:08;94614.66;;;20.13;46.90
6851;BME280;3464;42.728;23.296;2024-03-02T04:20:35;94610.80;;;19.79;47.52
6851;BME280;3464;42.728;23.296;2024-03-02T04:23:02;94610.20;;;19.49;48.23
6851;BME280;3464;42.728;23.296;2024-03-02T04:25:29;94609.37;;;18.88;49.52
6851;BME280;3464;42.728;23.296;2024-03-02T04:27:56;94614.09;;;19.48;48.36
6851;BME280;3464;42.728;23.296;2024-03-02T04:30:23;94613.59;;;19.62;48.24
6851;BME280;3464;42.728;23.296;2024-03-02T04:32:49;94615.34;;;20.04;47.60
6851;BME280;3464;42.728;23.296;2024-03-02T04:35:16;94618.94;;;19.18;49.20
6851;BME280;3464;42.728;23.296;2024-03-02T04:37:43;94615.34;;;19.71;47.97
6851;BME280;3464;42.728;23.296;2024-03-02T04:40:10;94620.22;;;20.23;47.23
6851;BME280;3464;42.728;23.296;2024-03-02T04:42:37;94625.59;;;19.81;48.13
6851;BME280;3464;42.728;23.296;2024-03-02T04:45:04;94618.44;;;20.25;47.03
6851;BME280;3464;42.728;23.296;2024-03-02T04:47:31;94616.28;;;20.25;46.96
6851;BME280;3464;42.728;23.296;2024-03-02T04:49:58;94624.12;;;20.09;47.54
6851;BME280;3464;42.728;23.296;2024-03-02T04:52:24;94624.30;;;20.28;47.05
6851;BME280;3464;42.728;23.296;2024-03-02T04:54:51;94621.11;;;19.99;47.70
6851;BME280;3464;42.728;23.296;2024-03-02T04:57:27;94625.33;;;20.11;47.64
6851;BME280;3464;42.728;23.296;2024-03-02T04:59:54;94625.27;;;20.56;47.17
6851;BME280;3464;42.728;23.296;2024-03-02T05:02:20;94619.11;;;20.61;46.82
6851;BME280;3464;42.728;23.296;2024-03-02T05:04:47;94622.20;;;20.48;47.28
6851;BME280;3464;42.728;23.296;2024-03-02T05:07:14;94626.43;;;20.59;46.79
6851;BME280;3464;42.728;23.296;2024-03-02T05:09:40;94629.45;;;20.48;47.14
6851;BME280;3464;42.728;23.296;2024-03-02T05:12:07;94625.45;;;20.31;47.67
6851;BME280;3464;42.728;23.296;2024-03-02T05:14:50;94632.01;;;20.48;47.24
6851;BME280;3464;42.728;23.296;2024-03-02T05:17:17;94637.02;;;20.71;47.00
6851;BME280;3464;42.728;23.296;2024-03-02T05:19:43;94639.71;;;20.68;46.93
6851;BME280;3464;42.728;23.296;2024-03-02T05:22:12;94646.27;;;19.98;47.75
6851;BME280;3464;42.728;23.296;2024-03-02T05:24:39;94651.09;;;19.83;48.56
6851;BME280;3464;42.728;23.296;2024-03-02T05:27:06;94649.04;;;20.03;48.04
6851;BME280;3464;42.728;23.296;2024-03-02T05:29:34;94649.17;;;19.77;48.57
6851;BME280;3464;42.728;23.296;2024-03-02T05:32:02;94650.08;;;19.65;48.85
6851;BME280;3464;42.728;23.296;2024-03-02T05:34:30;94658.09;;;20.00;48.21
6851;BME280;3464;42.728;23.296;2024-03-02T05:36:57;94655.23;;;19.86;48.36
6851;BME280;3464;42.728;23.296;2024-03-02T05:39:24;94658.95;;;19.30;49.83
6851;BME280;3464;42.728;23.296;2024-03-02T05:41:51;94659.02;;;19.65;49.09
6851;BME280;3464;42.728;23.296;2024-03-02T05:44:17;94667.86;;;19.55;49.48
6851;BME280;3464;42.728;23.296;2024-03-02T05:46:45;94660.97;;;19.92;49.18
6851;BME280;3464;42.728;23.296;2024-03-02T06:07:49;94673.95;;;19.02;51.21
6851;BME280;3464;42.728;23.296;2024-03-02T06:10:16;94680.11;;;19.21;50.90
6851;BME280;3464;42.728;23.296;2024-03-02T06:12:43;94678.61;;;18.35;52.28
6851;BME280;3464;42.728;23.296;2024-03-02T06:15:09;94673.18;;;18.73;51.62
6851;BME280;3464;42.728;23.296;2024-03-02T06:17:38;94676.48;;;18.63;51.84
6851;BME280;3464;42.728;23.296;2024-03-02T06:20:05;94679.79;;;18.53;51.97
6851;BME280;3464;42.728;23.296;2024-03-02T06:22:35;94686.99;;;18.25;52.28
6851;BME280;3464;42.728;23.296;2024-03-02T06:25:02;94685.02;;;17.47;53.85
6851;BME280;3464;42.728;23.296;2024-03-02T06:27:30;94686.66;;;17.16;54.72
6851;BME280;3464;42.728;23.296;2024-03-02T06:29:57;94689.70;;;17.29;54.99
6851;BME280;3464;42.728;23.296;2024-03-02T06:32:24;94686.55;;;17.97;53.95
6851;BME280;3464;42.728;23.296;2024-03-02T06:34:51;94691.58;;;18.28;53.15
6851;BME280;3464;42.728;23.296;2024-03-02T06:37:18;94682.02;;;18.63;52.05
6851;BME280;3464;42.728;23.296;2024-03-02T06:39:45;94684.77;;;19.09;51.49
6851;BME280;3464;42.728;23.296;2024-03-02T06:42:12;94688.97;;;17.57;54.05
6851;BME280;3464;42.728;23.296;2024-03-02T06:44:39;94694.42;;;18.46;52.65
6851;BME280;3464;42.728;23.296;2024-03-02T06:47:05;94694.66;;;17.95;53.05
6851;BME280;3464;42.728;23.296;2024-03-02T06:49:32;94698.11;;;17.49;53.77
6851;BME280;3464;42.728;23.296;2024-03-02T06:51:59;94694.76;;;18.76;52.06
6851;BME280;3464;42.728;23.296;2024-03-02T06:54:26;94703.80;;;17.41;53.86
6851;BME280;3464;42.728;23.296;2024-03-02T06:56:53;94702.78;;;17.48;55.16
6851;BME280;3464;42.728;23.296;2024-03-02T06:59:21;94705.05;;;17.59;53.88
6851;BME280;3464;42.728;23.296;2024-03-02T07:01:48;94708.91;;;16.91;55.55
6851;BME280;3464;42.728;23.296;2024-03-02T07:04:14;94711.31;;;16.80;56.18
6851;BME280;3464;42.728;23.296;2024-03-02T07:06:41;94710.08;;;17.28;55.45
6851;BME280;3464;42.728;23.296;2024-03-02T07:09:17;94705.58;;;17.22;55.40
6851;BME280;3464;42.728;23.296;2024-03-02T07:11:46;94709.17;;;18.08;53.81
6851;BME280;3464;42.728;23.296;2024-03-02T07:14:12;94712.72;;;18.31;52.65
6851;BME280;3464;42.728;23.296;2024-03-02T07:16:40;94721.59;;;17.08;55.75
6851;BME280;3464;42.728;23.296;2024-03-02T07:19:07;94688.28;;;17.52;54.95
6851;BME280;3464;42.728;23.296;2024-03-02T07:21:34;94714.70;;;17.13;55.61
6851;BME280;3464;42.728;23.296;2024-03-02T07:24:01;94723.90;;;17.02;55.39
6851;BME280;3464;42.728;23.296;2024-03-02T07:26:29;94717.59;;;17.17;55.64
6851;BME280;3464;42.728;23.296;2024-03-02T07:28:55;94720.03;;;17.84;53.86
6851;BME280;3464;42.728;23.296;2024-03-02T07:31:22;94714.66;;;18.08;53.73
6851;BME280;3464;42.728;23.296;2024-03-02T07:33:49;94721.61;;;16.91;55.97
6851;BME280;3464;42.728;23.296;2024-03-02T07:36:15;94721.33;;;16.86;56.25
6851;BME280;3464;42.728;23.296;2024-03-02T07:38:43;94717.32;;;17.44;55.25
6851;BME280;3464;42.728;23.296;2024-03-02T07:41:09;94722.43;;;16.75;56.38
6851;BME280;3464;42.728;23.296;2024-03-02T07:43:36;94722.45;;;17.09;56.00
6851;BME280;3464;42.728;23.296;2024-03-02T07:46:03;94731.14;;;16.65;56.55
6851;BME280;3464;42.728;23.296;2024-03-02T07:48:36;94727.50;;;17.42;55.58
6851;BME280;3464;42.728;23.296;2024-03-02T07:51:03;94725.41;;;16.37;57.06
6851;BME280;3464;42.728;23.296;2024-03-02T07:53:29;94728.21;;;16.99;55.66
6851;BME280;3464;42.728;23.296;2024-03-02T07:55:56;94732.49;;;16.79;56.21
6851;BME280;3464;42.728;23.296;2024-03-02T07:58:23;94736.74;;;17.13;56.50
6851;BME280;3464;42.728;23.296;2024-03-02T08:00:56;94730.75;;;16.99;56.42
6851;BME280;3464;42.728;23.296;2024-03-02T08:03:25;94728.78;;;17.74;54.95
6851;BME280;3464;42.728;23.296;2024-03-02T08:05:53;94729.46;;;17.16;55.62
6851;BME280;3464;42.728;23.296;2024-03-02T08:08:20;94736.58;;;16.30;57.57
6851;BME280;3464;42.728;23.296;2024-03-02T08:10:47;94737.64;;;16.77;57.61
6851;BME280;3464;42.728;23.296;2024-03-02T08:13:14;94739.01;;;17.08;55.78
6851;BME280;3464;42.728;23.296;2024-03-02T08:15:41;94737.89;;;16.84;55.77
6851;BME280;3464;42.728;23.296;2024-03-02T08:18:08;94737.66;;;17.10;55.70
6851;BME280;3464;42.728;23.296;2024-03-02T08:20:35;94737.64;;;17.28;55.54
6851;BME280;3464;42.728;23.296;2024-03-02T08:23:02;94724.45;;;17.93;54.35
6851;BME280;3464;42.728;23.296;2024-03-02T08:25:31;94727.10;;;19.01;51.96
6851;BME280;3464;42.728;23.296;2024-03-02T08:28:01;94734.27;;;18.20;53.05
6851;BME280;3464;42.728;23.296;2024-03-02T08:30:31;94732.48;;;17.94;54.25
6851;BME280;3464;42.728;23.296;2024-03-02T08:33:01;94732.21;;;18.87;51.86
6851;BME280;3464;42.728;23.296;2024-03-02T08:35:28;94719.92;;;19.22;51.44
6851;BME280;3464;42.728;23.296;2024-03-02T08:37:55;94721.85;;;19.06;51.42
6851;BME280;3464;42.728;23.296;2024-03-02T08:40:22;94726.51;;;19.45;50.91
6851;BME280;3464;42.728;23.296;2024-03-02T08:42:50;94728.40;;;19.26;51.36
6851;BME280;3464;42.728;23.296;2024-03-02T08:45:17;94726.91;;;19.09;51.46
6851;BME280;3464;42.728;23.296;2024-03-02T08:47:44;94729.70;;;19.63;50.54
6851;BME280;3464;42.728;23.296;2024-03-02T08:50:11;94727.18;;;20.22;49.61
6851;BME280;3464;42.728;23.296;2024-03-02T08:52:39;94728.03;;;19.85;50.07
6851;BME280;3464;42.728;23.296;2024-03-02T08:55:06;94730.50;;;20.79;48.48
6851;BME280;3464;42.728;23.296;2024-03-02T08:57:33;94731.02;;;19.97;49.14
6851;BME280;3464;42.728;23.296;2024-03-02T08:59:59;94726.02;;;21.27;47.31
6851;BME280;3464;42.728;23.296;2024-03-02T09:02:26;94726.56;;;21.94;46.69
6851;BME280;3464;42.728;23.296;2024-03-02T09:04:52;94731.38;;;20.89;46.89
6851;BME280;3464;42.728;23.296;2024-03-02T09:07:19;94731.66;;;19.18;50.03
6851;BME280;3464;42.728;23.296;2024-03-02T09:09:46;94732.45;;;20.28;49.30
6851;BME280;3464;42.728;23.296;2024-03-02T09:12:13;94727.22;;;21.98;46.71
6851;BME280;3464;42.728;23.296;2024-03-02T09:14:56;94717.09;;;22.89;44.67
6851;BME280;3464;42.728;23.296;2024-03-02T09:17:25;94730.31;;;22.34;45.52
6851;BME280;3464;42.728;23.296;2024-03-02T09:19:52;94737.05;;;22.74;44.29
6851;BME280;3464;42.728;23.296;2024-03-02T09:28:32;94741.84;;;23.08;43.43
6851;BME280;3464;42.728;23.296;2024-03-02T09:31:02;94740.73;;;22.50;45.20
6851;BME280;3464;42.728;23.296;2024-03-02T09:33:30;94746.82;;;21.90;45.46
6851;BME280;3464;42.728;23.296;2024-03-02T09:35:57;94751.25;;;21.46;46.65
6851;BME280;3464;42.728;23.296;2024-03-02T09:38:23;94747.96;;;22.22;45.50
6851;BME280;3464;42.728;23.296;2024-03-02T09:40:50;94746.80;;;22.76;44.66
6851;BME280;3464;42.728;23.296;2024-03-02T09:43:17;94754.09;;;22.75;44.00
6851;BME280;3464;42.728;23.296;2024-03-02T09:45:43;94746.00;;;23.01;43.67
6851;BME280;3464;42.728;23.296;2024-03-02T09:48:11;94745.91;;;22.76;44.23
6851;BME280;3464;42.728;23.296;2024-03-02T09:50:39;94744.14;;;22.59;43.76
6851;BME280;3464;42.728;23.296;2024-03-02T09:53:07;94750.31;;;22.92;43.57
6851;BME280;3464;42.728;23.296;2024-03-02T09:55:35;94745.30;;;23.25;42.83
6851;BME280;3464;42.728;23.296;2024-03-02T09:58:03;94752.36;;;23.72;41.99
6851;BME280;3464;42.728;23.296;2024-03-02T10:00:34;94747.33;;;23.95;41.83
6851;BME280;3464;42.728;23.296;2024-03-02T10:03:01;94753.44;;;24.34;41.25
6851;BME280;3464;42.728;23.296;2024-03-02T10:05:28;94750.07;;;23.67;41.76
6851;BME280;3464;42.728;23.296;2024-03-02T10:08:00;94751.03;;;23.81;41.43
6851;BME280;3464;42.728;23.296;2024-03-02T10:10:34;94744.95;;;24.00;41.43
6851;BME280;3464;42.728;23.296;2024-03-02T10:13:03;94748.75;;;24.65;40.85
6851;BME280;3464;42.728;23.296;2024-03-02T10:15:24;94747.03;;;24.57;40.46
6851;BME280;3464;42.728;23.296;2024-03-02T10:17:52;94737.93;;;23.00;42.91
6851;BME280;3464;42.728;23.296;2024-03-02T10:20:25;94746.05;;;23.00;43.25
6851;BME280;3464;42.728;23.296;2024-03-02T10:22:52;94745.98;;;23.02;43.13
6851;BME280;3464;42.728;23.296;2024-03-02T10:25:30;94744.64;;;23.46;42.58
6851;BME280;3464;42.728;23.296;2024-03-02T10:27:58;94737.89;;;22.72;43.56
6851;BME280;3464;42.728;23.296;2024-03-02T10:30:24;94738.05;;;22.61;43.97
6851;BME280;3464;42.728;23.296;2024-03-02T10:32:51;94743.93;;;22.35;44.80
6851;BME280;3464;42.728;23.296;2024-03-02T10:35:17;94739.48;;;22.48;44.85
6851;BME280;3464;42.728;23.296;2024-03-02T10:37:44;94742.87;;;21.82;45.20
6851;BME280;3464;42.728;23.296;2024-03-02T10:40:12;94729.84;;;22.72;44.73
6851;BME280;3464;42.728;23.296;2024-03-02T10:42:38;94734.33;;;23.30;43.56
6851;BME280;3464;42.728;23.296;2024-03-02T10:45:06;94742.48;;;22.76;43.97
6851;BME280;3464;42.728;23.296;2024-03-02T10:47:33;94734.41;;;22.75;43.47
6851;BME280;3464;42.728;23.296;2024-03-02T10:50:00;94732.73;;;22.56;43.63
6851;BME280;3464;42.728;23.296;2024-03-02T10:52:26;94737.45;;;22.65;43.81
6851;BME280;3464;42.728;23.296;2024-03-02T10:54:53;94729.13;;;23.49;42.87
6851;BME280;3464;42.728;23.296;2024-03-02T10:57:20;94726.14;;;22.87;43.62
6851;BME280;3464;42.728;23.296;2024-03-02T10:59:52;94730.59;;;23.01;43.90
6851;BME280;3464;42.728;23.296;2024-03-02T11:02:18;94728.08;;;23.36;42.77
6851;BME280;3464;42.728;23.296;2024-03-02T11:04:45;94724.73;;;23.42;42.37
6851;BME280;3464;42.728;23.296;2024-03-02T11:07:11;94724.97;;;23.37;41.96
6851;BME280;3464;42.728;23.296;2024-03-02T11:09:43;94720.14;;;23.14;42.44
6851;BME280;3464;42.728;23.296;2024-03-02T11:15:26;94725.55;;;21.98;44.72
6851;BME280;3464;42.728;23.296;2024-03-02T11:17:52;94725.38;;;22.20;44.54
6851;BME280;3464;42.728;23.296;2024-03-02T11:20:18;94715.88;;;23.40;42.64
6851;BME280;3464;42.728;23.296;2024-03-02T11:22:45;94720.11;;;23.58;42.22
6851;BME280;3464;42.728;23.296;2024-03-02T11:28:02;94720.50;;;22.34;44.05
6851;BME280;3464;42.728;23.296;2024-03-02T11:30:50;94722.19;;;21.87;45.27
6851;BME280;3464;42.728;23.296;2024-03-02T11:33:18;94711.34;;;22.92;43.50
6851;BME280;3464;42.728;23.296;2024-03-02T11:35:45;94709.69;;;22.64;43.15
6851;BME280;3464;42.728;23.296;2024-03-02T11:38:09;94703.70;;;22.64;43.33
6851;BME280;3464;42.728;23.296;2024-03-02T11:40:36;94710.13;;;22.45;44.43
6851;BME280;3464;42.728;23.296;2024-03-02T11:43:03;94702.38;;;23.53;42.66
6851;BME280;3464;42.728;23.296;2024-03-02T11:45:30;94710.69;;;23.90;42.24
6851;BME280;3464;42.728;23.296;2024-03-02T11:47:58;94716.08;;;22.74;43.71
6851;BME280;3464;42.728;23.296;2024-03-02T11:50:34;94717.52;;;22.80;43.64
6851;BME280;3464;42.728;23.296;2024-03-02T11:53:00;94711.00;;;23.52;42.23
6851;BME280;3464;42.728;23.296;2024-03-02T11:55:26;94704.86;;;23.02;42.92
6851;BME280;3464;42.728;23.296;2024-03-02T11:57:53;94703.85;;;23.32;42.17
6851;BME280;3464;42.728;23.296;2024-03-02T12:00:20;94712.19;;;22.83;43.45
6851;BME280;3464;42.728;23.296;2024-03-02T12:02:47;94711.39;;;22.64;43.54
6851;BME280;3464;42.728;23.296;2024-03-02T12:05:13;94715.61;;;21.70;45.09
6851;BME280;3464;42.728;23.296;2024-03-02T12:07:41;94713.41;;;22.49;44.11
6851;BME280;3464;42.728;23.296;2024-03-02T12:10:08;94714.50;;;21.77;45.01
6851;BME280;3464;42.728;23.296;2024-03-02T12:12:35;94713.38;;;22.12;44.26
6851;BME280;3464;42.728;23.296;2024-03-02T12:15:01;94708.73;;;22.57;44.18
6851;BME280;3464;42.728;23.296;2024-03-02T12:17:28;94714.11;;;21.36;45.97
6851;BME280;3464;42.728;23.296;2024-03-02T12:19:54;94711.49;;;22.25;44.60
6851;BME280;3464;42.728;23.296;2024-03-02T12:22:21;94712.59;;;22.10;44.92
6851;BME280;3464;42.728;23.296;2024-03-02T12:24:48;94714.38;;;22.92;43.50
6851;BME280;3464;42.728;23.296;2024-03-02T12:27:16;94717.28;;;21.91;44.36
6851;BME280;3464;42.728;23.296;2024-03-02T12:29:42;94711.72;;;21.62;45.29
6851;BME280;3464;42.728;23.296;2024-03-02T12:32:09;94716.86;;;21.32;45.98
6851;BME280;3464;42.728;23.296;2024-03-02T12:34:36;94713.16;;;21.38;45.79
6851;BME280;3464;42.728;23.296;2024-03-02T12:37:02;94714.61;;;21.44;46.06
6851;BME280;3464;42.728;23.296;2024-03-02T12:39:31;94708.77;;;21.71;45.31
6851;BME280;3464;42.728;23.296;2024-03-02T12:41:59;94706.69;;;22.18;44.79
6851;BME280;3464;42.728;23.296;2024-03-02T12:44:25;94710.33;;;22.78;43.63
6851;BME280;3464;42.728;23.296;2024-03-02T12:46:52;94715.81;;;22.79;43.46
6851;BME280;3464;42.728;23.296;2024-03-02T12:49:21;94712.75;;;22.98;42.95
6851;BME280;3464;42.728;23.296;2024-03-02T12:51:45;94712.91;;;21.64;45.42
6851;BME280;3464;42.728;23.296;2024-03-02T12:54:13;94715.86;;;21.75;45.46
6851;BME280;3464;42.728;23.296;2024-03-02T12:56:40;94714.38;;;22.55;44.19
6851;BME280;3464;42.728;23.296;2024-03-02T12:59:07;94718.50;;;21.93;44.84
6851;BME280;3464;42.728;23.296;2024-03-02T13:01:33;94721.86;;;21.94;44.73
6851;BME280;3464;42.728;23.296;2024-03-02T13:04:00;94722.62;;;22.43;43.48
6851;BME280;3464;42.728;23.296;2024-03-02T13:06:26;94721.06;;;22.40;43.51
6851;BME280;3464;42.728;23.296;2024-03-02T13:08:53;94716.45;;;22.66;43.15
6851;BME280;3464;42.728;23.296;2024-03-02T13:11:20;94713.98;;;22.91;42.87
6851;BME280;3464;42.728;23.296;2024-03-02T13:13:46;94721.94;;;22.11;43.86
6851;BME280;3464;42.728;23.296;2024-03-02T13:16:13;94716.47;;;21.81;44.86
6851;BME280;3464;42.728;23.296;2024-03-02T13:18:44;94713.34;;;22.03;44.39
6851;BME280;3464;42.728;23.296;2024-03-02T13:21:09;94719.44;;;21.21;45.52
6851;BME280;3464;42.728;23.296;2024-03-02T13:23:36;94720.68;;;21.82;44.93
6851;BME280;3464;42.728;23.296;2024-03-02T13:26:03;94722.42;;;22.48;43.49
6851;BME280;3464;42.728;23.296;2024-03-02T13:28:29;94724.48;;;22.12;43.77
6851;BME280;3464;42.728;23.296;2024-03-02T13:30:56;94719.86;;;22.10;44.00
6851;BME280;3464;42.728;23.296;2024-03-02T13:33:23;94726.86;;;22.16;43.84
6851;BME280;3464;42.728;23.296;2024-03-02T13:35:51;94730.23;;;22.26;43.69
6851;BME280;3464;42.728;23.296;2024-03-02T13:38:19;94729.73;;;22.10;43.97
6851;BME280;3464;42.728;23.296;2024-03-02T13:40:45;94733.89;;;21.22;45.31
6851;BME280;3464;42.728;23.296;2024-03-02T13:43:12;94725.37;;;21.82;44.63